Time;durP1;ratioP1;P1;durP2;ratioP2;P2;SDS_P1;SDS_P2;PMS_P1;PMS_P2;Temp;Humidity;BMP_temperature;BMP_pressure;BME280_temperature;BME280_humidity;BME280_pressure;Samples;Min_cycle;Max_cycle;Signal;HPM_P1;HPM_P2
2020/12/02 00:00:40;;;;;;;15.18;11.65;;;3.60;99.90;;;;;;5032720;28;20033;-73
2020/12/02 00:03:09;;;;;;;15.38;12.00;;;3.50;99.90;;;;;;5052934;28;20272;-73
2020/12/02 00:05:35;;;;;;;15.25;10.77;;;3.50;99.90;;;;;;5048618;28;20048;-72
2020/12/02 00:08:23;;;;;;;15.50;10.80;;;3.60;99.90;;;;;;5034112;28;20034;-72
2020/12/02 00:10:49;;;;;;;14.25;11.52;;;3.70;99.90;;;;;;5032418;28;20104;-72
2020/12/02 00:13:26;;;;;;;13.18;10.05;;;3.70;99.90;;;;;;5028821;28;20029;-73
2020/12/02 00:15:52;;;;;;;17.02;11.05;;;3.50;99.90;;;;;;5023072;28;20041;-73
2020/12/02 00:18:18;;;;;;;15.27;11.25;;;3.50;99.90;;;;;;5022926;28;20037;-74
2020/12/02 00:20:44;;;;;;;17.13;12.52;;;3.60;99.90;;;;;;5024817;28;20022;-73
2020/12/02 00:23:09;;;;;;;18.25;12.30;;;3.50;99.90;;;;;;5024639;28;20368;-72
2020/12/02 00:25:35;;;;;;;16.42;11.40;;;3.40;99.90;;;;;;5022425;28;20084;-74
2020/12/02 00:28:10;;;;;;;16.73;12.85;;;3.30;99.90;;;;;;5026060;28;20033;-72
2020/12/02 00:30:37;;;;;;;17.95;11.65;;;3.30;99.90;;;;;;5043378;28;20032;-73
2020/12/02 00:33:11;;;;;;;17.65;11.95;;;3.30;99.90;;;;;;5047265;28;20056;-73
2020/12/02 00:35:38;;;;;;;18.38;13.27;;;3.20;99.90;;;;;;5026845;28;20013;-73
2020/12/02 00:38:06;;;;;;;17.13;12.23;;;3.20;99.90;;;;;;5026305;28;20034;-72
2020/12/02 00:40:31;;;;;;;15.60;11.50;;;3.10;99.90;;;;;;5042740;28;20025;-71
2020/12/02 00:42:57;;;;;;;17.33;11.70;;;3.20;99.90;;;;;;5047858;28;20021;-72
2020/12/02 00:45:23;;;;;;;15.35;11.20;;;3.20;99.90;;;;;;5034359;28;20041;-73
2020/12/02 00:47:50;;;;;;;17.13;11.35;;;3.40;99.90;;;;;;5025651;28;20528;-74
2020/12/02 00:50:18;;;;;;;17.30;12.27;;;3.30;99.90;;;;;;5025576;28;20021;-72
2020/12/02 00:52:58;;;;;;;15.65;12.55;;;3.30;99.90;;;;;;5020878;28;20033;-73
2020/12/02 00:55:24;;;;;;;16.98;12.48;;;3.30;99.90;;;;;;5027911;28;20105;-74
2020/12/02 00:57:51;;;;;;;14.85;11.23;;;3.30;99.90;;;;;;5022326;28;20089;-74
2020/12/02 01:00:17;;;;;;;15.73;12.55;;;3.30;99.90;;;;;;5028792;28;20036;-74
2020/12/02 01:02:53;;;;;;;19.02;12.30;;;3.30;99.90;;;;;;5029473;28;20087;-71
2020/12/02 01:05:20;;;;;;;18.35;12.30;;;3.20;99.90;;;;;;5029553;28;20033;-72
2020/12/02 01:07:46;;;;;;;18.10;13.35;;;3.20;99.90;;;;;;5043617;28;20042;-72
2020/12/02 01:10:12;;;;;;;17.08;12.63;;;3.00;99.90;;;;;;5030199;28;20032;-73
2020/12/02 01:12:42;;;;;;;18.63;13.25;;;3.00;99.90;;;;;;5030882;28;20021;-73
2020/12/02 01:15:09;;;;;;;20.48;13.57;;;3.10;99.90;;;;;;5019149;28;20033;-73
2020/12/02 01:17:34;;;;;;;18.00;13.63;;;3.10;99.90;;;;;;5021756;28;20038;-73
2020/12/02 01:20:00;;;;;;;20.73;12.20;;;3.10;99.90;;;;;;5019499;28;20045;-72
2020/12/02 01:22:43;;;;;;;15.65;11.80;;;3.20;99.90;;;;;;5025917;28;20041;-72
2020/12/02 01:25:22;;;;;;;18.45;12.65;;;3.20;99.90;;;;;;5036839;28;20072;-72
2020/12/02 01:27:54;;;;;;;15.75;11.68;;;3.00;99.90;;;;;;5034519;28;20631;-73
2020/12/02 01:30:21;;;;;;;17.73;13.27;;;3.00;99.90;;;;;;5040480;28;20124;-72
2020/12/02 01:32:47;;;;;;;16.50;11.77;;;3.00;99.90;;;;;;5050176;28;20013;-73
2020/12/02 01:35:19;;;;;;;15.77;12.57;;;3.00;99.90;;;;;;5049634;28;20025;-73
2020/12/02 01:37:46;;;;;;;16.25;11.70;;;3.00;99.90;;;;;;5048476;28;20038;-72
2020/12/02 01:40:16;;;;;;;15.40;12.05;;;3.00;99.90;;;;;;5041220;28;20029;-72
2020/12/02 01:42:55;;;;;;;17.90;12.40;;;3.10;99.90;;;;;;5031167;28;20087;-74
2020/12/02 01:45:32;;;;;;;15.45;11.48;;;3.10;99.90;;;;;;5025903;28;20561;-72
2020/12/02 01:48:15;;;;;;;13.80;11.35;;;3.10;99.90;;;;;;5026294;28;20037;-72
2020/12/02 01:50:51;;;;;;;13.07;10.18;;;3.20;99.90;;;;;;5033471;28;20523;-72
2020/12/02 01:54:00;;;;;;;13.75;11.48;;;3.20;99.90;;;;;;5017640;28;20029;-73
2020/12/02 01:56:49;;;;;;;16.55;12.27;;;3.10;99.90;;;;;;5012113;28;20041;-72
2020/12/02 01:59:39;;;;;;;14.07;11.00;;;3.10;99.90;;;;;;5027899;28;20048;-72
2020/12/02 02:02:13;;;;;;;16.45;12.50;;;3.20;99.90;;;;;;5029046;28;20486;-72
2020/12/02 02:05:18;;;;;;;17.13;12.10;;;3.10;99.90;;;;;;5025090;28;20022;-72
2020/12/02 02:07:43;;;;;;;14.98;11.02;;;3.10;99.90;;;;;;5016393;28;20049;-73
2020/12/02 02:10:17;;;;;;;15.98;11.98;;;3.10;99.90;;;;;;5017865;28;20401;-73
2020/12/02 02:13:01;;;;;;;17.10;11.93;;;3.10;99.90;;;;;;5026031;28;20040;-73
2020/12/02 02:15:49;;;;;;;20.35;11.90;;;2.90;99.90;;;;;;5027358;28;20036;-73
2020/12/02 02:18:22;;;;;;;20.58;13.00;;;3.00;99.90;;;;;;5028427;28;20056;-73
2020/12/02 02:20:59;;;;;;;21.35;13.30;;;3.10;99.90;;;;;;5041674;28;20068;-72
2020/12/02 02:23:25;;;;;;;16.45;12.35;;;3.00;99.90;;;;;;5035978;28;20540;-72
2020/12/02 02:26:06;;;;;;;16.95;12.73;;;2.90;99.90;;;;;;5019935;28;20041;-72
2020/12/02 02:28:37;;;;;;;17.98;12.18;;;2.80;99.90;;;;;;5021148;28;20041;-72
2020/12/02 02:31:10;;;;;;;16.38;12.38;;;3.00;99.90;;;;;;5036657;28;20044;-71
2020/12/02 02:33:35;;;;;;;14.63;11.52;;;3.00;99.90;;;;;;5034063;28;20022;-72
2020/12/02 02:36:01;;;;;;;17.65;12.60;;;3.10;99.90;;;;;;5024549;28;20503;-72
2020/12/02 02:38:27;;;;;;;17.90;12.35;;;3.10;99.90;;;;;;5018530;28;20037;-72
2020/12/02 02:40:53;;;;;;;15.52;12.13;;;3.20;99.90;;;;;;5018090;28;20037;-72
2020/12/02 02:43:18;;;;;;;18.60;12.57;;;3.20;99.90;;;;;;5023049;28;20033;-72
2020/12/02 02:45:44;;;;;;;18.00;12.90;;;3.10;99.90;;;;;;5023149;28;20088;-72
2020/12/02 02:48:10;;;;;;;22.75;15.23;;;3.20;99.90;;;;;;5020128;28;20055;-72
2020/12/02 02:50:36;;;;;;;18.15;13.02;;;3.20;99.90;;;;;;5016420;28;20068;-72
2020/12/02 02:53:15;;;;;;;16.52;12.48;;;3.10;99.90;;;;;;5016277;28;20041;-72
2020/12/02 02:55:40;;;;;;;18.02;12.32;;;3.10;99.90;;;;;;5024523;28;20112;-71
2020/12/02 02:58:06;;;;;;;16.90;12.65;;;3.00;99.90;;;;;;5017201;28;20063;-72
2020/12/02 03:00:34;;;;;;;18.98;11.98;;;2.90;99.90;;;;;;5019001;28;20029;-72
2020/12/02 03:03:00;;;;;;;20.30;12.25;;;3.00;99.90;;;;;;5022554;28;20485;-72
2020/12/02 03:05:26;;;;;;;19.33;13.82;;;2.90;99.90;;;;;;5016886;28;20499;-72
2020/12/02 03:07:56;;;;;;;18.92;12.57;;;2.90;99.90;;;;;;5020636;28;20102;-72
2020/12/02 03:10:26;;;;;;;18.50;12.80;;;3.00;99.90;;;;;;5032933;28;20223;-72
2020/12/02 03:12:52;;;;;;;16.40;12.50;;;3.10;99.90;;;;;;5037758;28;20037;-72
2020/12/02 03:15:19;;;;;;;20.77;13.60;;;3.10;99.90;;;;;;5032204;28;20033;-72
2020/12/02 03:17:45;;;;;;;17.77;13.45;;;3.10;99.90;;;;;;5016633;28;20026;-72
2020/12/02 03:20:21;;;;;;;19.08;13.50;;;3.10;99.90;;;;;;5021775;28;20079;-72
2020/12/02 03:22:48;;;;;;;17.60;12.90;;;3.30;99.90;;;;;;5026819;28;20473;-72
2020/12/02 03:25:20;;;;;;;18.88;12.95;;;3.30;99.90;;;;;;5031691;28;20033;-72
2020/12/02 03:27:46;;;;;;;15.95;12.38;;;3.30;99.90;;;;;;5021224;28;20036;-73
2020/12/02 03:30:12;;;;;;;19.65;14.57;;;3.00;99.90;;;;;;5028689;28;20104;-72
2020/12/02 03:32:37;;;;;;;17.08;12.23;;;3.00;99.90;;;;;;5046768;28;20092;-72
2020/12/02 03:35:04;;;;;;;17.40;12.35;;;3.10;99.90;;;;;;5024836;28;20018;-72
2020/12/02 03:37:30;;;;;;;19.00;12.82;;;3.10;99.90;;;;;;5017889;28;20025;-72
2020/12/02 03:39:55;;;;;;;17.75;13.05;;;3.20;99.90;;;;;;5016399;28;20060;-72
2020/12/02 03:42:21;;;;;;;20.63;13.30;;;2.90;99.90;;;;;;5016587;28;20025;-72
2020/12/02 03:44:47;;;;;;;22.55;15.75;;;2.90;99.90;;;;;;5016209;28;20037;-72
2020/12/02 03:47:13;;;;;;;17.88;12.57;;;2.90;99.90;;;;;;5023049;28;20021;-72
2020/12/02 03:49:39;;;;;;;17.88;13.10;;;3.10;99.90;;;;;;5016110;28;20388;-72
2020/12/02 03:52:05;;;;;;;20.50;13.52;;;3.10;99.90;;;;;;5020860;28;20022;-72
2020/12/02 03:54:30;;;;;;;18.70;13.10;;;3.20;99.90;;;;;;5027375;28;20045;-73
2020/12/02 03:56:56;;;;;;;18.60;13.50;;;3.10;99.90;;;;;;5027344;28;20029;-73
2020/12/02 03:59:22;;;;;;;20.52;12.48;;;3.10;99.90;;;;;;5023660;28;20046;-72
2020/12/02 04:01:47;;;;;;;19.70;13.43;;;3.10;99.90;;;;;;5016052;28;20580;-71
2020/12/02 04:04:13;;;;;;;17.20;11.73;;;3.00;99.90;;;;;;5015811;28;20030;-72
2020/12/02 04:06:38;;;;;;;19.90;14.68;;;3.20;99.90;;;;;;5023873;28;20022;-72
2020/12/02 04:09:04;;;;;;;19.40;12.65;;;3.40;99.90;;;;;;5028801;28;20029;-72
2020/12/02 04:11:30;;;;;;;17.90;13.45;;;3.30;99.90;;;;;;5017224;28;20029;-73
2020/12/02 04:13:55;;;;;;;16.30;11.85;;;3.30;99.90;;;;;;5021293;28;20036;-72
2020/12/02 04:16:21;;;;;;;15.77;12.38;;;3.30;99.90;;;;;;5018721;28;20030;-72
2020/12/02 04:18:46;;;;;;;18.38;13.45;;;3.40;99.90;;;;;;5015384;28;20116;-72
2020/12/02 04:21:12;;;;;;;19.05;12.43;;;3.30;99.90;;;;;;5022642;28;20540;-72
2020/12/02 04:23:37;;;;;;;17.10;12.85;;;3.30;99.90;;;;;;5023229;28;20021;-72
2020/12/02 04:26:03;;;;;;;18.38;13.05;;;3.40;99.90;;;;;;5014768;28;20392;-73
2020/12/02 04:28:29;;;;;;;19.17;13.00;;;3.40;99.90;;;;;;5022887;28;20036;-72
2020/12/02 04:30:58;;;;;;;19.48;14.18;;;3.30;99.90;;;;;;5033357;28;20030;-72
2020/12/02 04:33:24;;;;;;;18.83;14.18;;;3.30;99.90;;;;;;5032686;28;20045;-72
2020/12/02 04:35:50;;;;;;;18.95;13.27;;;3.20;99.90;;;;;;5016101;28;20034;-72
2020/12/02 04:38:15;;;;;;;16.88;13.52;;;3.20;99.90;;;;;;5017181;28;20500;-73
2020/12/02 04:40:41;;;;;;;18.17;12.32;;;3.10;99.90;;;;;;5016512;28;20516;-72
2020/12/02 04:43:34;;;;;;;19.80;14.43;;;3.20;99.90;;;;;;5015655;28;20026;-72
2020/12/02 04:46:02;;;;;;;17.60;12.48;;;3.30;99.90;;;;;;5043759;28;20048;-72
2020/12/02 04:48:31;;;;;;;17.02;13.13;;;3.20;99.90;;;;;;5034623;28;20077;-72
2020/12/02 04:51:04;;;;;;;19.45;14.02;;;3.30;99.90;;;;;;5018528;28;20037;-72
2020/12/02 04:53:34;;;;;;;20.45;13.70;;;3.20;99.90;;;;;;5036798;28;20033;-73
2020/12/02 04:55:59;;;;;;;16.15;12.57;;;3.20;99.90;;;;;;5042783;28;20021;-71
2020/12/02 04:58:28;;;;;;;15.70;12.15;;;3.30;99.90;;;;;;5051810;28;20056;-72
2020/12/02 05:00:54;;;;;;;17.48;12.75;;;3.20;99.90;;;;;;5026153;28;20038;-72
2020/12/02 05:03:22;;;;;;;17.50;12.73;;;3.20;99.90;;;;;;5015538;28;20022;-72
2020/12/02 05:05:59;;;;;;;18.00;12.95;;;3.20;99.90;;;;;;5015507;28;20052;-72
2020/12/02 05:08:28;;;;;;;21.45;13.20;;;3.20;99.90;;;;;;5023558;28;20106;-72
2020/12/02 05:10:55;;;;;;;15.18;11.98;;;3.30;99.90;;;;;;5034647;28;20034;-72
2020/12/02 05:13:22;;;;;;;17.45;12.48;;;3.30;99.90;;;;;;5017468;28;20029;-73
2020/12/02 05:15:48;;;;;;;17.85;12.65;;;3.30;99.90;;;;;;5019634;28;20104;-73
2020/12/02 05:18:13;;;;;;;13.35;11.25;;;3.30;99.90;;;;;;5044564;23;20472;-68
2020/12/02 05:20:40;;;;;;;16.33;11.43;;;3.40;99.90;;;;;;5017110;28;20030;-70
2020/12/02 05:23:32;;;;;;;14.57;10.98;;;3.40;99.90;;;;;;5015442;28;20030;-69
2020/12/02 05:25:58;;;;;;;14.70;11.80;;;3.40;99.90;;;;;;5012743;28;20038;-69
2020/12/02 05:28:28;;;;;;;15.60;11.40;;;3.40;99.90;;;;;;4996272;28;20041;-70
2020/12/02 05:31:28;;;;;;;12.63;10.55;;;3.40;99.90;;;;;;5020487;28;20060;-69
2020/12/02 05:34:06;;;;;;;13.90;11.82;;;3.40;99.90;;;;;;4992233;28;20044;-68
2020/12/02 05:36:35;;;;;;;14.55;11.23;;;3.30;99.90;;;;;;5011694;28;20034;-69
2020/12/02 05:39:05;;;;;;;16.23;11.98;;;3.30;99.90;;;;;;4995445;28;20113;-69
2020/12/02 05:41:32;;;;;;;13.45;10.57;;;3.30;99.90;;;;;;4996292;28;20022;-69
2020/12/02 05:44:14;;;;;;;14.95;10.55;;;3.30;99.90;;;;;;4994547;28;20037;-68
2020/12/02 05:46:44;;;;;;;14.68;11.20;;;3.30;99.90;;;;;;5013077;28;20026;-69
2020/12/02 05:49:16;;;;;;;13.73;11.02;;;3.30;99.90;;;;;;5006623;28;20513;-69
2020/12/02 05:51:42;;;;;;;15.88;11.85;;;3.30;99.90;;;;;;4994338;28;20034;-68
2020/12/02 05:54:26;;;;;;;13.95;11.05;;;3.30;99.90;;;;;;5002585;28;20041;-69
2020/12/02 05:56:52;;;;;;;17.23;11.93;;;3.30;99.90;;;;;;4994443;28;20030;-68
2020/12/02 05:59:19;;;;;;;14.88;11.13;;;3.40;99.90;;;;;;4994880;28;20057;-69
2020/12/02 06:01:45;;;;;;;14.95;11.85;;;3.30;99.90;;;;;;4998373;28;20380;-69
2020/12/02 06:04:14;;;;;;;15.13;12.38;;;3.30;99.90;;;;;;5008134;28;20517;-70
2020/12/02 06:06:39;;;;;;;14.57;11.50;;;3.30;99.90;;;;;;4999104;28;20032;-69
2020/12/02 06:09:06;;;;;;;16.90;12.75;;;3.30;99.90;;;;;;5005545;28;20031;-69
2020/12/02 06:11:34;;;;;;;21.40;11.07;;;3.30;99.90;;;;;;4993046;28;20030;-69
2020/12/02 06:14:05;;;;;;;15.23;12.40;;;3.20;99.90;;;;;;4994062;28;20029;-69
2020/12/02 06:16:47;;;;;;;14.27;11.98;;;3.30;99.90;;;;;;4994001;28;20039;-70
2020/12/02 06:19:29;;;;;;;18.40;11.65;;;3.30;99.90;;;;;;5000271;28;20034;-70
2020/12/02 06:22:02;;;;;;;16.15;11.93;;;3.40;99.90;;;;;;4999579;28;20354;-70
2020/12/02 06:24:36;;;;;;;15.30;11.32;;;3.40;99.90;;;;;;4994113;28;20022;-68
2020/12/02 06:27:23;;;;;;;15.63;11.73;;;3.30;99.90;;;;;;4993969;28;20034;-69
2020/12/02 06:30:05;;;;;;;15.45;11.57;;;3.30;99.90;;;;;;5010992;28;20395;-69
2020/12/02 06:32:31;;;;;;;15.25;12.48;;;3.40;99.90;;;;;;5019637;28;20044;-70
2020/12/02 06:35:26;;;;;;;15.07;12.00;;;3.30;99.90;;;;;;4993865;28;20038;-69
2020/12/02 06:38:12;;;;;;;15.13;12.50;;;3.40;99.90;;;;;;4989272;28;20046;-69
2020/12/02 06:40:57;;;;;;;14.40;10.82;;;3.50;99.90;;;;;;4992445;28;20045;-68
2020/12/02 06:43:24;;;;;;;15.68;11.55;;;3.50;99.90;;;;;;4992884;28;20397;-68
2020/12/02 06:45:49;;;;;;;13.38;10.95;;;3.50;99.90;;;;;;4993795;28;20026;-70
2020/12/02 06:48:24;;;;;;;17.08;11.65;;;3.50;99.90;;;;;;4993822;28;20045;-68
2020/12/02 06:50:49;;;;;;;15.77;11.68;;;3.50;99.90;;;;;;4993218;28;20026;-69
2020/12/02 06:53:17;;;;;;;18.50;13.60;;;3.40;99.90;;;;;;4994080;28;20022;-69
2020/12/02 06:55:46;;;;;;;22.15;11.98;;;3.40;99.90;;;;;;4993588;28;20030;-69
2020/12/02 06:58:15;;;;;;;15.18;12.38;;;3.40;99.90;;;;;;4993182;28;20033;-69
2020/12/02 07:00:49;;;;;;;16.88;12.02;;;3.40;99.90;;;;;;5020063;28;20041;-69
2020/12/02 07:03:21;;;;;;;16.95;12.57;;;3.50;99.90;;;;;;5012767;28;20496;-69
2020/12/02 07:05:49;;;;;;;15.55;11.82;;;3.50;99.90;;;;;;5001743;28;20397;-69
2020/12/02 07:08:31;;;;;;;17.05;12.63;;;3.40;99.90;;;;;;5010644;28;20163;-68
2020/12/02 07:11:17;;;;;;;15.57;12.13;;;3.40;99.90;;;;;;5025788;28;20026;-68
2020/12/02 07:13:49;;;;;;;17.02;11.40;;;3.50;99.90;;;;;;5012058;28;20039;-68
2020/12/02 07:16:25;;;;;;;18.23;12.52;;;3.50;99.90;;;;;;5011764;28;20034;-69
2020/12/02 07:18:59;;;;;;;15.40;12.35;;;3.60;99.90;;;;;;5013958;28;20038;-68
2020/12/02 07:21:33;;;;;;;16.80;12.55;;;3.60;99.90;;;;;;5004476;28;20022;-68
2020/12/02 07:23:59;;;;;;;15.77;11.65;;;3.60;99.90;;;;;;5008799;28;20030;-69
2020/12/02 07:26:27;;;;;;;17.35;12.63;;;3.60;99.90;;;;;;5008995;28;20480;-69
2020/12/02 07:29:03;;;;;;;16.80;12.23;;;3.60;99.90;;;;;;4995687;28;20042;-69
2020/12/02 07:31:30;;;;;;;17.40;11.52;;;3.60;99.90;;;;;;5022888;28;20109;-69
2020/12/02 07:34:20;;;;;;;16.70;11.75;;;3.60;99.90;;;;;;5004532;28;20030;-68
2020/12/02 07:36:46;;;;;;;15.55;11.52;;;3.60;99.90;;;;;;5011516;28;20030;-69
2020/12/02 07:39:14;;;;;;;16.75;12.07;;;3.60;99.90;;;;;;5010010;28;20396;-69
2020/12/02 07:41:53;;;;;;;17.35;12.05;;;3.60;99.90;;;;;;5011183;28;20113;-69
2020/12/02 07:44:19;;;;;;;17.35;13.15;;;3.60;99.90;;;;;;5010093;28;20029;-69
2020/12/02 07:46:51;;;;;;;21.75;12.35;;;3.60;99.90;;;;;;5008473;28;20018;-69
2020/12/02 07:49:17;;;;;;;17.08;12.30;;;3.60;99.90;;;;;;5001872;28;20044;-69
2020/12/02 07:51:49;;;;;;;15.70;11.82;;;3.70;99.90;;;;;;5019538;28;20026;-69
2020/12/02 07:54:20;;;;;;;19.27;12.65;;;3.60;99.90;;;;;;5011859;28;20080;-69
2020/12/02 07:56:48;;;;;;;15.90;11.68;;;3.60;99.90;;;;;;5006334;28;20528;-70
2020/12/02 07:59:27;;;;;;;18.35;12.35;;;3.70;99.90;;;;;;4992699;28;20042;-70
2020/12/02 08:01:58;;;;;;;19.40;12.82;;;3.70;99.90;;;;;;4995375;28;20030;-70
2020/12/02 08:04:24;;;;;;;19.15;12.13;;;3.70;99.90;;;;;;4998907;28;20018;-70
2020/12/02 08:06:58;;;;;;;18.30;12.43;;;3.80;99.90;;;;;;4997479;28;20568;-70
2020/12/02 08:09:23;;;;;;;22.00;12.93;;;3.80;99.90;;;;;;5000899;28;20038;-70
2020/12/02 08:11:51;;;;;;;18.48;12.02;;;3.80;99.90;;;;;;4997946;28;20096;-70
2020/12/02 08:14:25;;;;;;;18.88;13.50;;;3.90;99.90;;;;;;5004696;28;20029;-70
2020/12/02 08:16:53;;;;;;;20.15;14.07;;;3.80;99.90;;;;;;5011190;28;20493;-69
2020/12/02 08:19:50;;;;;;;19.08;12.15;;;3.70;99.90;;;;;;5018228;28;20101;-69
2020/12/02 08:22:22;;;;;;;17.08;12.20;;;3.80;99.90;;;;;;4981976;28;20057;-70
2020/12/02 08:25:00;;;;;;;17.15;11.63;;;3.70;99.90;;;;;;4998429;28;20496;-70
2020/12/02 08:27:28;;;;;;;18.50;12.63;;;3.80;99.90;;;;;;4998282;28;20045;-71
2020/12/02 08:29:54;;;;;;;20.75;13.65;;;3.80;99.90;;;;;;5014312;28;20032;-69
2020/12/02 08:32:32;;;;;;;16.98;11.20;;;3.60;99.90;;;;;;5022663;28;20048;-72
2020/12/02 08:34:58;;;;;;;20.27;11.88;;;3.70;99.90;;;;;;5002198;28;20033;-70
2020/12/02 08:37:38;;;;;;;19.58;13.35;;;3.80;99.90;;;;;;5003786;28;20030;-70
2020/12/02 08:40:34;;;;;;;18.43;12.17;;;3.70;99.90;;;;;;5015672;28;20459;-71
2020/12/02 08:43:15;;;;;;;18.85;12.07;;;3.70;99.90;;;;;;4996410;28;20313;-71
2020/12/02 08:45:51;;;;;;;17.70;11.73;;;3.70;99.90;;;;;;5005557;28;20037;-69
2020/12/02 08:48:17;;;;;;;26.65;12.25;;;3.60;99.90;;;;;;4999469;28;20030;-69
2020/12/02 08:50:42;;;;;;;24.75;12.75;;;3.60;99.90;;;;;;5014157;28;20033;-72
2020/12/02 08:53:08;;;;;;;20.02;11.43;;;3.50;99.90;;;;;;5015145;28;20034;-70
2020/12/02 08:55:34;;;;;;;18.60;12.35;;;3.60;99.90;;;;;;5004849;28;20027;-70
2020/12/02 08:57:59;;;;;;;16.65;11.55;;;3.60;99.90;;;;;;4997121;28;20374;-70
2020/12/02 09:00:25;;;;;;;18.73;12.45;;;3.60;99.90;;;;;;5012580;28;20396;-70
2020/12/02 09:02:51;;;;;;;18.30;11.75;;;3.60;99.90;;;;;;4996927;28;20053;-71
2020/12/02 09:05:17;;;;;;;26.20;12.57;;;3.50;99.90;;;;;;4997958;28;20058;-70
2020/12/02 09:07:42;;;;;;;21.35;12.43;;;3.60;99.90;;;;;;5003665;28;20035;-69
2020/12/02 09:10:08;;;;;;;16.80;12.15;;;3.60;99.90;;;;;;5003902;28;20030;-70
2020/12/02 09:12:34;;;;;;;18.60;12.77;;;3.80;99.90;;;;;;5002362;28;20041;-70
2020/12/02 09:15:00;;;;;;;20.15;12.77;;;3.90;99.90;;;;;;5002857;28;20026;-71
2020/12/02 09:17:25;;;;;;;21.35;13.38;;;3.90;99.90;;;;;;5009354;28;20117;-69
2020/12/02 09:19:51;;;;;;;23.10;13.60;;;3.90;99.90;;;;;;5004857;28;20057;-71
2020/12/02 09:22:18;;;;;;;20.27;12.63;;;3.80;99.90;;;;;;5009435;28;20528;-69
2020/12/02 09:24:44;;;;;;;21.52;13.60;;;3.80;99.90;;;;;;5004054;28;20030;-71
2020/12/02 09:27:11;;;;;;;21.20;13.43;;;3.80;99.90;;;;;;5008977;28;20037;-69
2020/12/02 09:29:36;;;;;;;22.50;13.63;;;3.70;99.90;;;;;;5013652;28;20445;-70
2020/12/02 09:32:02;;;;;;;23.30;13.70;;;3.50;99.90;;;;;;5023171;28;20029;-70
2020/12/02 09:34:28;;;;;;;21.77;13.10;;;3.40;99.90;;;;;;5005719;28;20029;-69
2020/12/02 09:36:53;;;;;;;18.60;12.10;;;3.20;99.90;;;;;;5007174;28;20026;-70
2020/12/02 09:39:20;;;;;;;16.77;11.65;;;3.20;99.90;;;;;;4999387;28;20019;-69
2020/12/02 09:41:52;;;;;;;24.58;13.07;;;3.40;99.90;;;;;;5006047;28;20026;-69
2020/12/02 09:44:35;;;;;;;21.77;13.88;;;3.70;99.90;;;;;;5016216;28;20462;-70
2020/12/02 09:47:08;;;;;;;19.15;12.52;;;3.80;99.90;;;;;;5006513;28;20030;-70
2020/12/02 09:49:38;;;;;;;21.45;12.95;;;3.80;99.90;;;;;;5001508;28;20088;-70
2020/12/02 09:52:10;;;;;;;21.98;13.45;;;3.70;99.90;;;;;;5005786;28;20076;-68
2020/12/02 09:54:39;;;;;;;26.35;13.88;;;3.80;99.90;;;;;;5001443;28;20033;-70
2020/12/02 09:57:26;;;;;;;25.42;16.58;;;3.70;99.90;;;;;;5010245;28;20034;-72
2020/12/02 09:59:59;;;;;;;21.17;12.85;;;3.70;99.90;;;;;;5003224;28;20065;-70
2020/12/02 10:02:37;;;;;;;25.13;15.02;;;3.80;99.90;;;;;;5012082;28;20026;-70
2020/12/02 10:05:43;;;;;;;24.50;14.43;;;3.80;99.90;;;;;;5011258;28;20057;-70
2020/12/02 10:08:24;;;;;;;23.50;14.38;;;3.80;99.90;;;;;;5004477;28;20070;-69
2020/12/02 10:10:52;;;;;;;25.55;13.82;;;3.80;99.90;;;;;;5012870;28;20026;-70
2020/12/02 10:13:55;;;;;;;27.77;14.63;;;3.80;99.90;;;;;;5009352;28;20168;-69
2020/12/02 10:16:45;;;;;;;21.90;13.85;;;3.60;99.90;;;;;;5007001;28;20030;-70
2020/12/02 10:19:41;;;;;;;22.55;14.13;;;3.70;99.90;;;;;;5011365;28;20033;-69
2020/12/02 10:22:28;;;;;;;26.10;14.07;;;3.70;99.90;;;;;;5003001;28;20057;-69
2020/12/02 10:25:12;;;;;;;22.90;15.73;;;3.90;99.90;;;;;;5006892;28;20037;-69
2020/12/02 10:27:40;;;;;;;25.17;13.93;;;4.00;99.90;;;;;;5008837;28;20026;-69
2020/12/02 10:30:17;;;;;;;23.45;14.40;;;3.80;99.90;;;;;;5003547;28;20022;-69
2020/12/02 10:33:21;;;;;;;23.95;15.30;;;4.00;99.90;;;;;;5002438;28;20029;-70
2020/12/02 10:35:47;;;;;;;23.92;15.73;;;4.00;99.90;;;;;;5005236;28;20034;-70
2020/12/02 10:38:59;;;;;;;22.70;13.50;;;4.00;99.90;;;;;;5003470;28;20489;-69
2020/12/02 10:41:46;;;;;;;20.23;12.45;;;4.00;99.90;;;;;;5000533;28;20122;-69
2020/12/02 10:44:36;;;;;;;20.33;12.93;;;4.00;99.90;;;;;;5004428;28;20116;-69
2020/12/02 10:47:42;;;;;;;19.23;12.27;;;4.20;99.90;;;;;;4998112;28;20034;-69
2020/12/02 10:50:08;;;;;;;23.40;13.75;;;4.20;99.90;;;;;;5005766;28;20018;-70
2020/12/02 10:52:34;;;;;;;21.75;13.65;;;4.00;99.90;;;;;;5003652;28;20034;-71
2020/12/02 10:55:02;;;;;;;19.95;11.98;;;4.30;99.90;;;;;;5012144;28;20026;-70
2020/12/02 10:57:27;;;;;;;20.10;12.88;;;4.30;99.90;;;;;;5003599;28;20485;-69
2020/12/02 10:59:56;;;;;;;21.50;11.93;;;4.20;99.90;;;;;;5020681;28;20106;-69
2020/12/02 11:02:30;;;;;;;20.73;12.88;;;4.20;99.90;;;;;;5014785;28;20034;-69
2020/12/02 11:04:56;;;;;;;21.67;13.05;;;4.20;99.90;;;;;;5014295;28;20037;-71
2020/12/02 11:07:25;;;;;;;20.30;12.23;;;4.20;99.90;;;;;;5011892;28;20084;-70
2020/12/02 11:10:12;;;;;;;23.13;14.40;;;4.10;99.90;;;;;;5026767;28;20025;-71
2020/12/02 11:12:49;;;;;;;20.52;12.88;;;4.10;99.90;;;;;;5009721;28;20033;-71
2020/12/02 11:15:17;;;;;;;17.60;12.95;;;4.10;99.90;;;;;;5014723;28;20053;-69
2020/12/02 11:18:07;;;;;;;19.27;13.13;;;4.00;99.90;;;;;;5035621;23;20050;-73
2020/12/02 11:20:45;;;;;;;22.48;13.60;;;4.10;99.90;;;;;;5033027;28;20033;-73
2020/12/02 11:23:38;;;;;;;19.88;14.27;;;4.20;99.90;;;;;;5017802;28;20033;-73
2020/12/02 11:26:10;;;;;;;21.50;13.93;;;4.10;99.90;;;;;;5029391;28;20499;-72
2020/12/02 11:28:41;;;;;;;20.23;13.93;;;4.00;99.90;;;;;;5031321;28;20029;-72
2020/12/02 11:31:53;;;;;;;21.23;14.63;;;3.90;99.90;;;;;;5031452;28;20021;-73
2020/12/02 11:34:33;;;;;;;23.23;14.65;;;3.90;99.90;;;;;;4990478;28;20278;-73
2020/12/02 11:37:19;;;;;;;23.60;13.07;;;3.80;99.90;;;;;;4995233;28;20061;-72
2020/12/02 11:40:09;;;;;;;24.05;13.85;;;3.90;99.90;;;;;;5013003;28;20176;-73
2020/12/02 11:42:47;;;;;;;25.23;14.82;;;3.90;99.90;;;;;;5017559;28;20030;-73
2020/12/02 11:45:23;;;;;;;22.30;13.57;;;3.90;99.90;;;;;;5017011;28;20013;-73
2020/12/02 11:47:57;;;;;;;22.05;13.75;;;3.90;99.90;;;;;;5017263;28;20026;-73
2020/12/02 11:50:35;;;;;;;26.05;15.18;;;3.80;99.90;;;;;;5016860;28;20022;-74
2020/12/02 11:53:04;;;;;;;24.40;13.45;;;3.90;99.90;;;;;;5017914;28;20029;-73
2020/12/02 11:55:30;;;;;;;23.95;14.82;;;3.80;99.90;;;;;;5019125;28;20034;-73
2020/12/02 11:57:57;;;;;;;19.65;11.45;;;3.70;99.90;;;;;;5024117;28;20400;-73
2020/12/02 12:00:22;;;;;;;22.33;13.00;;;3.70;99.90;;;;;;5038218;28;20036;-72
2020/12/02 12:03:01;;;;;;;23.67;13.68;;;3.70;99.90;;;;;;5036580;28;20037;-72
2020/12/02 12:05:33;;;;;;;25.00;15.43;;;3.70;99.90;;;;;;5028445;28;20065;-72
2020/12/02 12:08:33;;;;;;;23.98;13.23;;;3.70;99.90;;;;;;5023402;28;20034;-72
2020/12/02 12:11:02;;;;;;;25.13;13.15;;;3.70;99.90;;;;;;5017633;28;20060;-73
2020/12/02 12:13:43;;;;;;;24.67;14.25;;;3.60;99.90;;;;;;5016884;28;20059;-73
2020/12/02 12:16:17;;;;;;;23.88;12.98;;;3.60;99.90;;;;;;5016820;28;20034;-72
2020/12/02 12:19:03;;;;;;;24.67;14.27;;;3.60;99.90;;;;;;5025298;28;20088;-73
2020/12/02 12:22:05;;;;;;;22.48;13.48;;;3.60;99.90;;;;;;5025744;28;20038;-73
2020/12/02 12:24:31;;;;;;;26.67;13.85;;;3.60;99.90;;;;;;5018018;28;20446;-74
2020/12/02 12:26:56;;;;;;;27.80;14.18;;;3.50;99.90;;;;;;5017377;28;20078;-74
2020/12/02 12:29:22;;;;;;;27.60;14.57;;;3.50;99.90;;;;;;5019865;28;20025;-73
2020/12/02 12:31:52;;;;;;;22.77;13.13;;;3.60;99.90;;;;;;5048045;28;20094;-73
2020/12/02 12:34:43;;;;;;;26.50;14.10;;;3.60;99.90;;;;;;5036370;28;20017;-73
2020/12/02 12:37:26;;;;;;;25.40;13.60;;;3.60;99.90;;;;;;5029764;28;20065;-72
2020/12/02 12:39:58;;;;;;;24.95;14.88;;;3.60;99.90;;;;;;5026211;28;20034;-73
2020/12/02 12:42:28;;;;;;;26.67;13.73;;;3.60;99.90;;;;;;5025756;28;20037;-73
2020/12/02 12:44:59;;;;;;;24.58;13.88;;;3.60;99.90;;;;;;5026891;28;20048;-72
2020/12/02 12:47:27;;;;;;;24.13;14.33;;;3.50;99.90;;;;;;5022075;28;20401;-73
2020/12/02 12:49:54;;;;;;;26.63;14.55;;;3.50;99.90;;;;;;5025546;28;20277;-71
2020/12/02 12:52:24;;;;;;;32.58;16.67;;;3.60;99.90;;;;;;5018142;28;20038;-73
2020/12/02 12:54:50;;;;;;;30.27;18.17;;;3.50;99.90;;;;;;5018462;28;20556;-72
2020/12/02 12:57:19;;;;;;;31.02;16.50;;;3.60;99.90;;;;;;5031102;28;20478;-73
2020/12/02 12:59:45;;;;;;;31.25;14.93;;;3.50;99.90;;;;;;5029699;28;20392;-72
2020/12/02 13:02:23;;;;;;;28.67;15.48;;;3.50;99.90;;;;;;5025710;28;20026;-73